Aérodrome :
LOGIN :

S'inscrire | Disclaimer

   EN    FR    IT 

 










Légende :    VFR   VFR Marginal   IFR   IFR Intensif   IFR Très Intensif
Visi : 
Plafond : 
>= 8 km
>= 3000ft
5 à 8 km
1000 à 3000 ft
1500m à 5 km
500 à 1000 ft
800 à 1500m
200 à 500 ft
< 800m
< 200 ft
Symboles :   Orages  Brouillard  Fortes neiges  Fortes précipitations  Vent > 20 kt
SIGMETs :   Divers  Orages  Givrage  Turbulence  Onde Orograph.  Cendres Volcan.






- Altitude de l'aérodrome : 245 ft
- Code IATA : BIQ


LFBZ - Biarritz

DERNIER METAR :
  • 232000Z AUTO 24008KT 200V270 9000 -RA OVC009/// ///TCU 14/14 Q1021 TEMPO 27015G25KT 4000 SHRA BKN010 BKN020TCU

METARs EXPIRÉS :
  • 231930Z AUTO 23008KT 190V280 9999 OVC009/// ///TCU 15/14 Q1021 TEMPO 27015G25KT 4000 SHRA BKN010 BKN020TCU
  • 231900Z AUTO 23005KT 170V270 9999 -DZ OVC010/// ///CB 15/14 Q1021 TEMPO 27015G25KT 4000 SHRA
  • 231830Z AUTO 22005KT 180V280 9999 -RA OVC010 15/14 Q1021 TEMPO 27015G25KT 4000 SHRA BKN010 BKN020TCU
  • 231800Z AUTO 23006KT 180V300 9999 -RA OVC009 15/14 Q1021 TEMPO 27015G25KT 4000 SHRA BKN010 BKN020TCU
  • 231730Z AUTO 24009KT 190V270 8000 -RA BKN008/// OVC014/// ///TCU 15/14 Q1021 TEMPO 27015G25KT 4000 SHRA BKN010 BKN020TCU

TAF TAF LFBZ
Valide du 23 à 18h jusqu'au 24 à 18h UTC


231700Z 2318/2418 26010KT 9999 SCT010 BKN020
TEMPO 2318/2412 27015G25KT 4000 SHRA BKN010 BKN020TCU



MET'MAP, la Météo Aéronautique d'un coup d'oeil ! - Copyright ORBIFLY Décembre 2007 - Disclaimer

ORBIFLY MET'MAP TEAM :

Programmation & Développement : Alexandra Zaïnal
Sur une idée originale de : Baudouin d'Aumeries
Assistance à la programmation : Marc-Olivier Méhu
Soutien technique & logistique : Manuel Goepfert

Contact : metmap@orbifly.com




SOURCES & CREDITS :

   NOAA